sensor_id;sensor_type;location;lat;lon;timestamp;temperature;humidity
53310;DHT22;39197;53.200;5.792;2023-05-07T00:01:16;13.40;99.90
53310;DHT22;39197;53.200;5.792;2023-05-07T00:03:41;13.40;99.90
53310;DHT22;39197;53.200;5.792;2023-05-07T00:06:07;13.40;99.90
53310;DHT22;39197;53.200;5.792;2023-05-07T00:08:32;13.40;99.90
53310;DHT22;39197;53.200;5.792;2023-05-07T00:10:58;13.30;99.90
53310;DHT22;39197;53.200;5.792;2023-05-07T00:13:24;13.30;99.90
53310;DHT22;39197;53.200;5.792;2023-05-07T00:15:49;13.40;99.90
53310;DHT22;39197;53.200;5.792;2023-05-07T00:18:15;13.30;99.90
53310;DHT22;39197;53.200;5.792;2023-05-07T00:20:41;13.40;99.90
53310;DHT22;39197;53.200;5.792;2023-05-07T00:23:06;13.30;99.90
53310;DHT22;39197;53.200;5.792;2023-05-07T00:25:32;13.30;99.90
53310;DHT22;39197;53.200;5.792;2023-05-07T00:27:57;13.30;99.90
53310;DHT22;39197;53.200;5.792;2023-05-07T00:30:29;13.30;99.90
53310;DHT22;39197;53.200;5.792;2023-05-07T00:32:54;13.30;99.90
53310;DHT22;39197;53.200;5.792;2023-05-07T00:35:20;13.20;99.90
53310;DHT22;39197;53.200;5.792;2023-05-07T00:37:46;13.20;99.90
53310;DHT22;39197;53.200;5.792;2023-05-07T00:40:11;13.20;99.90
53310;DHT22;39197;53.200;5.792;2023-05-07T00:42:37;13.10;99.90
53310;DHT22;39197;53.200;5.792;2023-05-07T00:45:03;13.20;99.90
53310;DHT22;39197;53.200;5.792;2023-05-07T00:47:29;13.20;99.90
53310;DHT22;39197;53.200;5.792;2023-05-07T00:49:54;13.10;99.90
53310;DHT22;39197;53.200;5.792;2023-05-07T00:52:21;13.10;99.90
53310;DHT22;39197;53.200;5.792;2023-05-07T00:54:49;13.00;99.90
53310;DHT22;39197;53.200;5.792;2023-05-07T00:57:14;13.00;99.90
53310;DHT22;39197;53.200;5.792;2023-05-07T00:59:41;13.00;99.90
53310;DHT22;39197;53.200;5.792;2023-05-07T01:02:07;12.90;99.90
53310;DHT22;39197;53.200;5.792;2023-05-07T01:04:33;12.90;99.90
53310;DHT22;39197;53.200;5.792;2023-05-07T01:06:59;12.90;99.90
53310;DHT22;39197;53.200;5.792;2023-05-07T01:09:26;13.00;99.90
53310;DHT22;39197;53.200;5.792;2023-05-07T01:11:53;12.90;99.90
53310;DHT22;39197;53.200;5.792;2023-05-07T01:14:20;12.90;99.90
53310;DHT22;39197;53.200;5.792;2023-05-07T01:16:47;12.90;99.90
53310;DHT22;39197;53.200;5.792;2023-05-07T01:19:14;12.80;99.90
53310;DHT22;39197;53.200;5.792;2023-05-07T01:21:45;12.80;99.90
53310;DHT22;39197;53.200;5.792;2023-05-07T01:24:12;12.80;99.90
53310;DHT22;39197;53.200;5.792;2023-05-07T01:26:38;12.80;99.90
53310;DHT22;39197;53.200;5.792;2023-05-07T01:29:04;12.70;99.90
53310;DHT22;39197;53.200;5.792;2023-05-07T01:31:29;12.70;99.90
53310;DHT22;39197;53.200;5.792;2023-05-07T01:33:57;12.70;99.90
53310;DHT22;39197;53.200;5.792;2023-05-07T01:36:25;12.70;99.90
53310;DHT22;39197;53.200;5.792;2023-05-07T01:38:52;12.70;99.90
53310;DHT22;39197;53.200;5.792;2023-05-07T01:41:19;12.70;99.90
53310;DHT22;39197;53.200;5.792;2023-05-07T01:43:46;12.70;99.90
53310;DHT22;39197;53.200;5.792;2023-05-07T01:46:13;12.60;99.90
53310;DHT22;39197;53.200;5.792;2023-05-07T01:48:40;12.60;99.90
53310;DHT22;39197;53.200;5.792;2023-05-07T01:51:06;12.60;99.90
53310;DHT22;39197;53.200;5.792;2023-05-07T01:53:36;12.60;99.90
53310;DHT22;39197;53.200;5.792;2023-05-07T01:56:02;12.60;99.90
53310;DHT22;39197;53.200;5.792;2023-05-07T01:58:27;12.60;99.90
53310;DHT22;39197;53.200;5.792;2023-05-07T02:00:53;12.60;99.90
53310;DHT22;39197;53.200;5.792;2023-05-07T02:03:19;12.50;99.90
53310;DHT22;39197;53.200;5.792;2023-05-07T02:05:44;12.50;99.90
53310;DHT22;39197;53.200;5.792;2023-05-07T02:08:10;12.50;99.90
53310;DHT22;39197;53.200;5.792;2023-05-07T02:10:35;12.50;99.90
53310;DHT22;39197;53.200;5.792;2023-05-07T02:13:01;12.50;99.90
53310;DHT22;39197;53.200;5.792;2023-05-07T02:15:27;12.50;99.90
53310;DHT22;39197;53.200;5.792;2023-05-07T02:18:01;12.50;99.90
53310;DHT22;39197;53.200;5.792;2023-05-07T02:20:27;12.50;99.90
53310;DHT22;39197;53.200;5.792;2023-05-07T02:22:53;12.50;99.90
53310;DHT22;39197;53.200;5.792;2023-05-07T02:25:18;12.40;99.90
53310;DHT22;39197;53.200;5.792;2023-05-07T02:27:44;12.40;99.90
53310;DHT22;39197;53.200;5.792;2023-05-07T02:30:10;12.40;99.90
53310;DHT22;39197;53.200;5.792;2023-05-07T02:32:35;12.40;99.90
53310;DHT22;39197;53.200;5.792;2023-05-07T02:35:01;12.40;99.90
53310;DHT22;39197;53.200;5.792;2023-05-07T02:37:26;12.40;99.90
53310;DHT22;39197;53.200;5.792;2023-05-07T02:39:52;12.30;99.90
53310;DHT22;39197;53.200;5.792;2023-05-07T02:42:17;12.30;99.90
53310;DHT22;39197;53.200;5.792;2023-05-07T02:44:43;12.20;99.90
53310;DHT22;39197;53.200;5.792;2023-05-07T02:47:09;12.20;99.90
53310;DHT22;39197;53.200;5.792;2023-05-07T02:49:35;12.30;99.90
53310;DHT22;39197;53.200;5.792;2023-05-07T02:52:01;12.20;99.90
53310;DHT22;39197;53.200;5.792;2023-05-07T02:54:26;12.20;99.90
53310;DHT22;39197;53.200;5.792;2023-05-07T02:56:52;12.20;99.90
53310;DHT22;39197;53.200;5.792;2023-05-07T02:59:18;12.20;99.90
53310;DHT22;39197;53.200;5.792;2023-05-07T03:01:43;12.10;99.90
53310;DHT22;39197;53.200;5.792;2023-05-07T03:04:10;12.10;99.90
53310;DHT22;39197;53.200;5.792;2023-05-07T03:06:36;12.10;99.90
53310;DHT22;39197;53.200;5.792;2023-05-07T03:09:02;12.10;99.90
53310;DHT22;39197;53.200;5.792;2023-05-07T03:11:28;12.10;99.90
53310;DHT22;39197;53.200;5.792;2023-05-07T03:13:54;12.00;99.90
53310;DHT22;39197;53.200;5.792;2023-05-07T03:16:19;12.00;99.90
53310;DHT22;39197;53.200;5.792;2023-05-07T03:18:45;12.00;99.90
53310;DHT22;39197;53.200;5.792;2023-05-07T03:21:11;12.00;99.90
53310;DHT22;39197;53.200;5.792;2023-05-07T03:23:36;12.00;99.90
53310;DHT22;39197;53.200;5.792;2023-05-07T03:26:02;12.00;99.90
53310;DHT22;39197;53.200;5.792;2023-05-07T03:28:28;12.00;99.90
53310;DHT22;39197;53.200;5.792;2023-05-07T03:30:53;11.90;99.90
53310;DHT22;39197;53.200;5.792;2023-05-07T03:33:19;11.90;99.90
53310;DHT22;39197;53.200;5.792;2023-05-07T03:35:44;11.90;99.90
53310;DHT22;39197;53.200;5.792;2023-05-07T03:38:10;11.80;99.90
53310;DHT22;39197;53.200;5.792;2023-05-07T03:40:36;11.80;99.90
53310;DHT22;39197;53.200;5.792;2023-05-07T03:43:01;11.80;99.90
53310;DHT22;39197;53.200;5.792;2023-05-07T03:45:27;11.80;99.90
53310;DHT22;39197;53.200;5.792;2023-05-07T03:47:53;11.80;99.90
53310;DHT22;39197;53.200;5.792;2023-05-07T03:50:19;11.70;99.90
53310;DHT22;39197;53.200;5.792;2023-05-07T03:52:44;11.70;99.90
53310;DHT22;39197;53.200;5.792;2023-05-07T03:55:10;11.70;99.90
53310;DHT22;39197;53.200;5.792;2023-05-07T03:57:36;11.70;99.90
53310;DHT22;39197;53.200;5.792;2023-05-07T04:00:02;11.60;99.90
53310;DHT22;39197;53.200;5.792;2023-05-07T04:02:29;11.60;99.90
53310;DHT22;39197;53.200;5.792;2023-05-07T04:04:54;11.60;99.90
53310;DHT22;39197;53.200;5.792;2023-05-07T04:07:20;11.60;99.90
53310;DHT22;39197;53.200;5.792;2023-05-07T04:09:46;11.50;99.90
53310;DHT22;39197;53.200;5.792;2023-05-07T04:12:11;11.50;99.90
53310;DHT22;39197;53.200;5.792;2023-05-07T04:14:37;11.50;99.90
53310;DHT22;39197;53.200;5.792;2023-05-07T04:17:02;11.40;99.90
53310;DHT22;39197;53.200;5.792;2023-05-07T04:19:28;11.50;99.90
53310;DHT22;39197;53.200;5.792;2023-05-07T04:21:53;11.50;99.90
53310;DHT22;39197;53.200;5.792;2023-05-07T04:24:19;11.40;99.90
53310;DHT22;39197;53.200;5.792;2023-05-07T04:26:45;11.40;99.90
53310;DHT22;39197;53.200;5.792;2023-05-07T04:29:11;11.30;99.90
53310;DHT22;39197;53.200;5.792;2023-05-07T04:31:36;11.40;99.90
53310;DHT22;39197;53.200;5.792;2023-05-07T04:34:02;11.30;99.90
53310;DHT22;39197;53.200;5.792;2023-05-07T04:36:28;11.30;99.90
53310;DHT22;39197;53.200;5.792;2023-05-07T04:38:54;11.30;99.90
53310;DHT22;39197;53.200;5.792;2023-05-07T04:41:20;11.30;99.90
53310;DHT22;39197;53.200;5.792;2023-05-07T04:43:46;11.40;99.90
53310;DHT22;39197;53.200;5.792;2023-05-07T04:46:11;11.30;99.90
53310;DHT22;39197;53.200;5.792;2023-05-07T04:48:37;11.30;99.90
53310;DHT22;39197;53.200;5.792;2023-05-07T04:51:02;11.30;99.90
53310;DHT22;39197;53.200;5.792;2023-05-07T04:53:28;11.30;99.90
53310;DHT22;39197;53.200;5.792;2023-05-07T04:55:57;11.30;99.90
53310;DHT22;39197;53.200;5.792;2023-05-07T04:58:23;11.30;99.90
53310;DHT22;39197;53.200;5.792;2023-05-07T05:00:49;11.30;99.90
53310;DHT22;39197;53.200;5.792;2023-05-07T05:03:15;11.30;99.90
53310;DHT22;39197;53.200;5.792;2023-05-07T05:05:40;11.20;99.90
53310;DHT22;39197;53.200;5.792;2023-05-07T05:08:06;11.20;99.90
53310;DHT22;39197;53.200;5.792;2023-05-07T05:10:31;11.30;99.90
53310;DHT22;39197;53.200;5.792;2023-05-07T05:12:57;11.20;99.90
53310;DHT22;39197;53.200;5.792;2023-05-07T05:15:23;11.20;99.90
53310;DHT22;39197;53.200;5.792;2023-05-07T05:17:48;11.20;99.90
53310;DHT22;39197;53.200;5.792;2023-05-07T05:20:14;11.20;99.90
53310;DHT22;39197;53.200;5.792;2023-05-07T05:22:41;11.30;99.90
53310;DHT22;39197;53.200;5.792;2023-05-07T05:25:07;11.30;99.90
53310;DHT22;39197;53.200;5.792;2023-05-07T05:27:33;11.30;99.90
53310;DHT22;39197;53.200;5.792;2023-05-07T05:29:59;11.30;99.90
53310;DHT22;39197;53.200;5.792;2023-05-07T05:32:25;11.30;99.90
53310;DHT22;39197;53.200;5.792;2023-05-07T05:34:51;11.30;99.90
53310;DHT22;39197;53.200;5.792;2023-05-07T05:37:16;11.30;99.90
53310;DHT22;39197;53.200;5.792;2023-05-07T05:39:42;11.20;99.90
53310;DHT22;39197;53.200;5.792;2023-05-07T05:42:07;11.30;99.90
53310;DHT22;39197;53.200;5.792;2023-05-07T05:44:33;11.30;99.90
53310;DHT22;39197;53.200;5.792;2023-05-07T05:47:00;11.30;99.90
53310;DHT22;39197;53.200;5.792;2023-05-07T05:49:25;11.30;99.90
53310;DHT22;39197;53.200;5.792;2023-05-07T05:51:51;11.30;99.90
53310;DHT22;39197;53.200;5.792;2023-05-07T05:54:17;11.30;99.90
53310;DHT22;39197;53.200;5.792;2023-05-07T05:56:42;11.30;99.90
53310;DHT22;39197;53.200;5.792;2023-05-07T05:59:08;11.40;99.90
53310;DHT22;39197;53.200;5.792;2023-05-07T06:01:33;11.40;99.90
53310;DHT22;39197;53.200;5.792;2023-05-07T06:03:59;11.40;99.90
53310;DHT22;39197;53.200;5.792;2023-05-07T06:06:25;11.40;99.90
53310;DHT22;39197;53.200;5.792;2023-05-07T06:08:51;11.40;99.90
53310;DHT22;39197;53.200;5.792;2023-05-07T06:11:16;11.40;99.90
53310;DHT22;39197;53.200;5.792;2023-05-07T06:13:42;11.50;99.90
53310;DHT22;39197;53.200;5.792;2023-05-07T06:16:07;11.50;99.90
53310;DHT22;39197;53.200;5.792;2023-05-07T06:18:33;11.60;99.90
53310;DHT22;39197;53.200;5.792;2023-05-07T06:21:01;11.60;99.90
53310;DHT22;39197;53.200;5.792;2023-05-07T06:23:27;11.60;99.90
53310;DHT22;39197;53.200;5.792;2023-05-07T06:25:52;11.70;99.90
53310;DHT22;39197;53.200;5.792;2023-05-07T06:28:18;11.70;99.90
53310;DHT22;39197;53.200;5.792;2023-05-07T06:30:44;11.70;99.90
53310;DHT22;39197;53.200;5.792;2023-05-07T06:33:09;11.80;99.90
53310;DHT22;39197;53.200;5.792;2023-05-07T06:35:35;11.90;99.90
53310;DHT22;39197;53.200;5.792;2023-05-07T06:38:00;11.80;99.90
53310;DHT22;39197;53.200;5.792;2023-05-07T06:40:26;11.80;99.90
53310;DHT22;39197;53.200;5.792;2023-05-07T06:42:52;11.90;99.90
53310;DHT22;39197;53.200;5.792;2023-05-07T06:45:19;12.00;99.90
53310;DHT22;39197;53.200;5.792;2023-05-07T06:47:45;12.00;99.90
53310;DHT22;39197;53.200;5.792;2023-05-07T06:50:11;12.10;99.90
53310;DHT22;39197;53.200;5.792;2023-05-07T06:52:36;12.00;99.90
53310;DHT22;39197;53.200;5.792;2023-05-07T06:55:02;12.10;99.90
53310;DHT22;39197;53.200;5.792;2023-05-07T06:57:27;12.10;99.90
53310;DHT22;39197;53.200;5.792;2023-05-07T06:59:53;12.10;99.90
53310;DHT22;39197;53.200;5.792;2023-05-07T07:02:18;12.10;99.90
53310;DHT22;39197;53.200;5.792;2023-05-07T07:04:44;12.10;99.90
53310;DHT22;39197;53.200;5.792;2023-05-07T07:07:10;12.20;99.90
53310;DHT22;39197;53.200;5.792;2023-05-07T07:09:36;12.10;99.90
53310;DHT22;39197;53.200;5.792;2023-05-07T07:12:02;12.10;99.90
53310;DHT22;39197;53.200;5.792;2023-05-07T07:14:27;12.10;99.90
53310;DHT22;39197;53.200;5.792;2023-05-07T07:16:53;12.10;99.90
53310;DHT22;39197;53.200;5.792;2023-05-07T07:19:18;12.20;99.90
53310;DHT22;39197;53.200;5.792;2023-05-07T07:21:45;12.30;99.90
53310;DHT22;39197;53.200;5.792;2023-05-07T07:24:11;12.40;99.90
53310;DHT22;39197;53.200;5.792;2023-05-07T07:26:36;12.50;99.90
53310;DHT22;39197;53.200;5.792;2023-05-07T07:29:02;12.60;99.90
53310;DHT22;39197;53.200;5.792;2023-05-07T07:31:27;12.50;99.90
53310;DHT22;39197;53.200;5.792;2023-05-07T07:33:53;12.60;99.90
53310;DHT22;39197;53.200;5.792;2023-05-07T07:36:19;12.70;99.90
53310;DHT22;39197;53.200;5.792;2023-05-07T07:38:44;12.80;99.90
53310;DHT22;39197;53.200;5.792;2023-05-07T07:41:10;12.80;99.90
53310;DHT22;39197;53.200;5.792;2023-05-07T07:43:35;12.90;99.90
53310;DHT22;39197;53.200;5.792;2023-05-07T07:46:01;12.90;99.90
53310;DHT22;39197;53.200;5.792;2023-05-07T07:48:27;13.00;99.90
53310;DHT22;39197;53.200;5.792;2023-05-07T07:50:52;12.90;99.90
53310;DHT22;39197;53.200;5.792;2023-05-07T07:53:18;12.90;99.90
53310;DHT22;39197;53.200;5.792;2023-05-07T07:55:44;12.80;99.90
53310;DHT22;39197;53.200;5.792;2023-05-07T07:58:10;12.90;99.90
53310;DHT22;39197;53.200;5.792;2023-05-07T08:00:36;13.00;99.90
53310;DHT22;39197;53.200;5.792;2023-05-07T08:03:01;13.10;99.90
53310;DHT22;39197;53.200;5.792;2023-05-07T08:05:29;13.10;99.90
53310;DHT22;39197;53.200;5.792;2023-05-07T08:07:55;13.20;99.90
53310;DHT22;39197;53.200;5.792;2023-05-07T08:10:21;13.30;99.90
53310;DHT22;39197;53.200;5.792;2023-05-07T08:12:50;13.40;99.90
53310;DHT22;39197;53.200;5.792;2023-05-07T08:15:16;13.40;99.90
53310;DHT22;39197;53.200;5.792;2023-05-07T08:17:43;13.40;99.90
53310;DHT22;39197;53.200;5.792;2023-05-07T08:20:09;13.60;99.90
53310;DHT22;39197;53.200;5.792;2023-05-07T08:22:35;13.80;99.90
53310;DHT22;39197;53.200;5.792;2023-05-07T08:25:01;13.90;99.90
53310;DHT22;39197;53.200;5.792;2023-05-07T08:27:27;14.00;99.90
53310;DHT22;39197;53.200;5.792;2023-05-07T08:29:53;13.90;99.90
53310;DHT22;39197;53.200;5.792;2023-05-07T08:32:18;13.90;99.90
53310;DHT22;39197;53.200;5.792;2023-05-07T08:34:44;13.80;99.90
53310;DHT22;39197;53.200;5.792;2023-05-07T08:37:09;13.90;99.90
53310;DHT22;39197;53.200;5.792;2023-05-07T08:39:35;14.10;99.90
53310;DHT22;39197;53.200;5.792;2023-05-07T08:42:01;14.40;99.90
53310;DHT22;39197;53.200;5.792;2023-05-07T08:44:28;15.00;99.90
53310;DHT22;39197;53.200;5.792;2023-05-07T08:46:58;15.40;99.90
53310;DHT22;39197;53.200;5.792;2023-05-07T08:49:26;15.40;99.90
53310;DHT22;39197;53.200;5.792;2023-05-07T08:51:52;15.50;99.90
53310;DHT22;39197;53.200;5.792;2023-05-07T08:54:18;15.40;99.90
53310;DHT22;39197;53.200;5.792;2023-05-07T08:56:45;15.60;99.90
53310;DHT22;39197;53.200;5.792;2023-05-07T08:59:12;16.00;99.90
53310;DHT22;39197;53.200;5.792;2023-05-07T09:01:38;16.40;99.90
53310;DHT22;39197;53.200;5.792;2023-05-07T09:04:04;16.70;99.90
53310;DHT22;39197;53.200;5.792;2023-05-07T09:06:29;17.00;99.90
53310;DHT22;39197;53.200;5.792;2023-05-07T09:08:55;17.10;99.90
53310;DHT22;39197;53.200;5.792;2023-05-07T09:11:23;17.00;99.90
53310;DHT22;39197;53.200;5.792;2023-05-07T09:13:53;17.30;99.90
53310;DHT22;39197;53.200;5.792;2023-05-07T09:16:21;17.40;99.90
53310;DHT22;39197;53.200;5.792;2023-05-07T09:18:48;17.50;99.90
53310;DHT22;39197;53.200;5.792;2023-05-07T09:21:18;17.30;99.90
53310;DHT22;39197;53.200;5.792;2023-05-07T09:23:44;17.30;99.90
53310;DHT22;39197;53.200;5.792;2023-05-07T09:26:10;17.50;99.90
53310;DHT22;39197;53.200;5.792;2023-05-07T09:28:41;17.70;99.90
53310;DHT22;39197;53.200;5.792;2023-05-07T09:31:08;17.50;99.90
53310;DHT22;39197;53.200;5.792;2023-05-07T09:33:33;17.80;99.90
53310;DHT22;39197;53.200;5.792;2023-05-07T09:36:04;17.90;99.90
53310;DHT22;39197;53.200;5.792;2023-05-07T09:38:32;17.50;99.90
53310;DHT22;39197;53.200;5.792;2023-05-07T09:41:05;17.20;99.90
53310;DHT22;39197;53.200;5.792;2023-05-07T09:43:33;16.90;99.90
53310;DHT22;39197;53.200;5.792;2023-05-07T09:46:12;16.90;99.90
53310;DHT22;39197;53.200;5.792;2023-05-07T09:48:39;16.90;99.90
53310;DHT22;39197;53.200;5.792;2023-05-07T09:51:25;16.90;99.90
53310;DHT22;39197;53.200;5.792;2023-05-07T09:53:53;16.90;99.90
53310;DHT22;39197;53.200;5.792;2023-05-07T09:56:19;17.20;99.90
53310;DHT22;39197;53.200;5.792;2023-05-07T09:58:46;17.20;99.90
53310;DHT22;39197;53.200;5.792;2023-05-07T10:01:13;17.30;99.90
53310;DHT22;39197;53.200;5.792;2023-05-07T10:03:43;17.60;99.90
53310;DHT22;39197;53.200;5.792;2023-05-07T10:06:10;17.70;99.90
53310;DHT22;39197;53.200;5.792;2023-05-07T10:08:37;17.80;99.90
53310;DHT22;39197;53.200;5.792;2023-05-07T10:11:04;17.90;99.90
53310;DHT22;39197;53.200;5.792;2023-05-07T10:13:34;18.20;99.90
53310;DHT22;39197;53.200;5.792;2023-05-07T10:16:06;18.20;99.90
53310;DHT22;39197;53.200;5.792;2023-05-07T10:18:33;18.40;99.90
53310;DHT22;39197;53.200;5.792;2023-05-07T10:21:07;18.40;99.90
53310;DHT22;39197;53.200;5.792;2023-05-07T10:23:33;18.60;99.90
53310;DHT22;39197;53.200;5.792;2023-05-07T10:26:02;18.90;99.90
53310;DHT22;39197;53.200;5.792;2023-05-07T10:28:30;19.30;99.90
53310;DHT22;39197;53.200;5.792;2023-05-07T10:31:07;19.70;99.90
53310;DHT22;39197;53.200;5.792;2023-05-07T10:33:37;20.00;99.90
53310;DHT22;39197;53.200;5.792;2023-05-07T10:36:03;20.50;99.90
53310;DHT22;39197;53.200;5.792;2023-05-07T10:38:30;20.00;99.90
53310;DHT22;39197;53.200;5.792;2023-05-07T10:40:56;20.50;99.90
53310;DHT22;39197;53.200;5.792;2023-05-07T10:43:23;21.00;99.90
53310;DHT22;39197;53.200;5.792;2023-05-07T10:46:18;21.10;99.90
53310;DHT22;39197;53.200;5.792;2023-05-07T10:51:34;21.20;99.90
53310;DHT22;39197;53.200;5.792;2023-05-07T10:56:36;21.50;99.90
53310;DHT22;39197;53.200;5.792;2023-05-07T11:02:10;21.80;99.90
53310;DHT22;39197;53.200;5.792;2023-05-07T11:04:37;21.60;99.90
53310;DHT22;39197;53.200;5.792;2023-05-07T11:09:57;21.40;99.90
53310;DHT22;39197;53.200;5.792;2023-05-07T11:15:06;21.40;99.90
53310;DHT22;39197;53.200;5.792;2023-05-07T11:17:32;21.40;99.90
53310;DHT22;39197;53.200;5.792;2023-05-07T11:20:03;21.80;99.90
53310;DHT22;39197;53.200;5.792;2023-05-07T11:25:08;21.70;99.90
53310;DHT22;39197;53.200;5.792;2023-05-07T11:27:34;21.10;99.90
53310;DHT22;39197;53.200;5.792;2023-05-07T11:30:00;21.20;99.90
53310;DHT22;39197;53.200;5.792;2023-05-07T11:32:30;21.30;99.90
53310;DHT22;39197;53.200;5.792;2023-05-07T11:34:57;21.80;99.90
53310;DHT22;39197;53.200;5.792;2023-05-07T11:37:24;22.40;99.90
53310;DHT22;39197;53.200;5.792;2023-05-07T11:39:50;22.70;99.90
53310;DHT22;39197;53.200;5.792;2023-05-07T11:42:28;22.50;99.90
53310;DHT22;39197;53.200;5.792;2023-05-07T11:44:54;22.20;99.90
53310;DHT22;39197;53.200;5.792;2023-05-07T11:47:20;22.70;99.90
53310;DHT22;39197;53.200;5.792;2023-05-07T11:49:53;22.60;99.90
53310;DHT22;39197;53.200;5.792;2023-05-07T11:52:20;22.40;99.90
53310;DHT22;39197;53.200;5.792;2023-05-07T11:54:50;22.40;99.90
53310;DHT22;39197;53.200;5.792;2023-05-07T11:57:16;22.40;99.90
53310;DHT22;39197;53.200;5.792;2023-05-07T11:59:42;22.70;99.90
53310;DHT22;39197;53.200;5.792;2023-05-07T12:02:10;22.60;99.90
53310;DHT22;39197;53.200;5.792;2023-05-07T12:04:35;22.40;99.90
53310;DHT22;39197;53.200;5.792;2023-05-07T12:07:01;22.20;99.90
53310;DHT22;39197;53.200;5.792;2023-05-07T12:09:27;22.40;99.90
53310;DHT22;39197;53.200;5.792;2023-05-07T12:11:53;23.30;99.90
53310;DHT22;39197;53.200;5.792;2023-05-07T12:14:21;23.40;99.90
53310;DHT22;39197;53.200;5.792;2023-05-07T12:16:47;23.10;99.90
53310;DHT22;39197;53.200;5.792;2023-05-07T12:19:12;23.50;99.90
53310;DHT22;39197;53.200;5.792;2023-05-07T12:21:39;23.20;99.90
53310;DHT22;39197;53.200;5.792;2023-05-07T12:24:05;23.00;99.90
53310;DHT22;39197;53.200;5.792;2023-05-07T12:26:31;23.00;99.90
53310;DHT22;39197;53.200;5.792;2023-05-07T12:28:59;23.30;99.90
53310;DHT22;39197;53.200;5.792;2023-05-07T12:31:26;23.30;99.90
53310;DHT22;39197;53.200;5.792;2023-05-07T12:33:51;23.30;99.90
53310;DHT22;39197;53.200;5.792;2023-05-07T12:36:17;23.20;99.90
53310;DHT22;39197;53.200;5.792;2023-05-07T12:38:49;23.40;99.90
53310;DHT22;39197;53.200;5.792;2023-05-07T12:41:15;23.10;99.90
53310;DHT22;39197;53.200;5.792;2023-05-07T12:43:44;23.20;99.90
53310;DHT22;39197;53.200;5.792;2023-05-07T12:46:09;23.30;99.90
53310;DHT22;39197;53.200;5.792;2023-05-07T12:48:43;23.30;99.90
53310;DHT22;39197;53.200;5.792;2023-05-07T12:51:11;23.80;99.90
53310;DHT22;39197;53.200;5.792;2023-05-07T12:53:42;23.80;99.90
53310;DHT22;39197;53.200;5.792;2023-05-07T12:56:08;23.70;99.90
53310;DHT22;39197;53.200;5.792;2023-05-07T12:58:34;23.90;99.90
53310;DHT22;39197;53.200;5.792;2023-05-07T13:01:07;24.00;99.90
53310;DHT22;39197;53.200;5.792;2023-05-07T13:03:36;23.60;99.90
53310;DHT22;39197;53.200;5.792;2023-05-07T13:06:05;23.60;99.90
53310;DHT22;39197;53.200;5.792;2023-05-07T13:08:32;23.40;99.90
53310;DHT22;39197;53.200;5.792;2023-05-07T13:10:59;22.90;99.90
53310;DHT22;39197;53.200;5.792;2023-05-07T13:13:31;22.70;99.90
53310;DHT22;39197;53.200;5.792;2023-05-07T13:15:57;23.10;99.90
53310;DHT22;39197;53.200;5.792;2023-05-07T13:18:25;23.30;99.90
53310;DHT22;39197;53.200;5.792;2023-05-07T13:20:51;23.40;99.90
53310;DHT22;39197;53.200;5.792;2023-05-07T13:23:17;23.30;99.90
53310;DHT22;39197;53.200;5.792;2023-05-07T13:25:43;23.30;99.90
53310;DHT22;39197;53.200;5.792;2023-05-07T13:28:08;22.60;99.90
53310;DHT22;39197;53.200;5.792;2023-05-07T13:30:34;23.30;99.90
53310;DHT22;39197;53.200;5.792;2023-05-07T13:33:00;23.30;99.90
53310;DHT22;39197;53.200;5.792;2023-05-07T13:35:27;23.90;99.90
53310;DHT22;39197;53.200;5.792;2023-05-07T13:37:54;23.90;99.90
53310;DHT22;39197;53.200;5.792;2023-05-07T13:40:21;23.60;99.90
53310;DHT22;39197;53.200;5.792;2023-05-07T13:42:47;24.00;99.90
53310;DHT22;39197;53.200;5.792;2023-05-07T13:45:13;24.10;99.90
53310;DHT22;39197;53.200;5.792;2023-05-07T13:47:41;24.60;99.90
53310;DHT22;39197;53.200;5.792;2023-05-07T13:50:10;24.70;99.90
53310;DHT22;39197;53.200;5.792;2023-05-07T13:52:41;24.30;99.90
53310;DHT22;39197;53.200;5.792;2023-05-07T13:55:09;24.00;99.90
53310;DHT22;39197;53.200;5.792;2023-05-07T13:57:36;24.00;99.90
53310;DHT22;39197;53.200;5.792;2023-05-07T14:00:03;23.90;99.90
53310;DHT22;39197;53.200;5.792;2023-05-07T14:02:30;23.20;99.90
53310;DHT22;39197;53.200;5.792;2023-05-07T14:04:56;23.30;99.90
53310;DHT22;39197;53.200;5.792;2023-05-07T14:07:22;22.90;99.90
53310;DHT22;39197;53.200;5.792;2023-05-07T14:09:47;23.10;99.90
53310;DHT22;39197;53.200;5.792;2023-05-07T14:12:13;23.40;99.90
53310;DHT22;39197;53.200;5.792;2023-05-07T14:14:38;23.20;99.90
53310;DHT22;39197;53.200;5.792;2023-05-07T14:17:04;22.80;99.90
53310;DHT22;39197;53.200;5.792;2023-05-07T14:19:30;23.00;99.90
53310;DHT22;39197;53.200;5.792;2023-05-07T14:21:55;23.00;99.90
53310;DHT22;39197;53.200;5.792;2023-05-07T14:24:21;22.70;99.90
53310;DHT22;39197;53.200;5.792;2023-05-07T14:26:47;22.50;99.90
53310;DHT22;39197;53.200;5.792;2023-05-07T14:29:12;22.40;99.90
53310;DHT22;39197;53.200;5.792;2023-05-07T14:31:38;22.30;99.90
53310;DHT22;39197;53.200;5.792;2023-05-07T14:34:04;22.40;99.90
53310;DHT22;39197;53.200;5.792;2023-05-07T14:36:30;22.10;99.90
53310;DHT22;39197;53.200;5.792;2023-05-07T14:38:57;22.10;99.90
53310;DHT22;39197;53.200;5.792;2023-05-07T14:41:24;22.30;99.90
53310;DHT22;39197;53.200;5.792;2023-05-07T14:43:50;22.20;99.90
53310;DHT22;39197;53.200;5.792;2023-05-07T14:46:19;22.00;99.90
53310;DHT22;39197;53.200;5.792;2023-05-07T14:48:45;22.10;99.90
53310;DHT22;39197;53.200;5.792;2023-05-07T14:51:12;22.10;99.90
53310;DHT22;39197;53.200;5.792;2023-05-07T14:53:38;21.90;99.90
53310;DHT22;39197;53.200;5.792;2023-05-07T14:56:04;21.90;99.90
53310;DHT22;39197;53.200;5.792;2023-05-07T14:58:30;21.90;99.90
53310;DHT22;39197;53.200;5.792;2023-05-07T15:00:56;21.70;99.90
53310;DHT22;39197;53.200;5.792;2023-05-07T15:03:22;21.70;99.90
53310;DHT22;39197;53.200;5.792;2023-05-07T15:05:48;21.80;99.90
53310;DHT22;39197;53.200;5.792;2023-05-07T15:08:17;22.00;99.90
53310;DHT22;39197;53.200;5.792;2023-05-07T15:10:42;21.90;99.90
53310;DHT22;39197;53.200;5.792;2023-05-07T15:13:09;22.10;99.90
53310;DHT22;39197;53.200;5.792;2023-05-07T15:15:35;22.00;99.90
53310;DHT22;39197;53.200;5.792;2023-05-07T15:18:02;22.00;99.90
53310;DHT22;39197;53.200;5.792;2023-05-07T15:20:28;21.90;99.90
53310;DHT22;39197;53.200;5.792;2023-05-07T15:22:53;21.80;99.90
53310;DHT22;39197;53.200;5.792;2023-05-07T15:25:19;21.90;99.90
53310;DHT22;39197;53.200;5.792;2023-05-07T15:27:46;21.60;99.90
53310;DHT22;39197;53.200;5.792;2023-05-07T15:30:12;21.60;99.90
53310;DHT22;39197;53.200;5.792;2023-05-07T15:32:40;21.60;99.90
53310;DHT22;39197;53.200;5.792;2023-05-07T15:35:06;21.60;99.90
53310;DHT22;39197;53.200;5.792;2023-05-07T15:37:33;21.70;99.90
53310;DHT22;39197;53.200;5.792;2023-05-07T15:39:59;21.50;99.90
53310;DHT22;39197;53.200;5.792;2023-05-07T15:42:24;21.30;99.90